createdAt,value
2023-04-14T00:02:24.465Z,5.28
2023-04-14T00:04:53.633Z,5.29
2023-04-14T00:07:20.885Z,5.26
2023-04-14T00:09:47.689Z,5.25
2023-04-14T00:12:14.505Z,5.24
2023-04-14T00:14:43.144Z,5.22
2023-04-14T00:17:10.689Z,5.22
2023-04-14T00:19:37.871Z,5.22
2023-04-14T00:22:04.743Z,5.14
2023-04-14T00:24:31.547Z,5.07
2023-04-14T00:26:58.403Z,5.00
2023-04-14T00:29:25.440Z,4.94
2023-04-14T00:31:52.281Z,4.89
2023-04-14T00:34:19.037Z,4.84
2023-04-14T00:36:45.841Z,4.82
2023-04-14T00:39:12.624Z,4.82
2023-04-14T00:41:39.520Z,4.82
2023-04-14T00:44:06.340Z,4.89
2023-04-14T00:46:33.346Z,4.98
2023-04-14T00:49:00.757Z,5.05
2023-04-14T00:51:28.150Z,5.03
2023-04-14T00:53:56.812Z,5.03
2023-04-14T00:56:26.469Z,4.98
2023-04-14T00:58:53.932Z,4.90
2023-04-14T01:01:21.057Z,4.84
2023-04-14T01:03:48.607Z,4.79
2023-04-14T01:06:15.547Z,4.77
2023-04-14T01:08:42.461Z,4.76
2023-04-14T01:11:25.403Z,4.70
2023-04-14T01:13:58.652Z,4.66
2023-04-14T01:16:33.838Z,4.69
2023-04-14T01:19:47.433Z,4.72
2023-04-14T01:22:18.849Z,4.77
2023-04-14T01:25:07.047Z,4.73
2023-04-14T01:27:55.893Z,4.63
2023-04-14T01:30:34.628Z,4.54
2023-04-14T01:33:05.803Z,4.48
2023-04-14T01:35:42.402Z,4.42
2023-04-14T01:38:27.891Z,4.40
2023-04-14T01:41:02.698Z,4.40
2023-04-14T01:43:33.894Z,4.41
2023-04-14T01:46:12.958Z,4.40
2023-04-14T01:48:42.000Z,4.40
2023-04-14T01:51:12.176Z,4.43
2023-04-14T01:53:43.746Z,4.47
2023-04-14T01:56:15.199Z,4.45
2023-04-14T01:58:47.215Z,4.53
2023-04-14T02:01:14.767Z,4.65
2023-04-14T02:03:43.723Z,4.63
2023-04-14T02:06:13.535Z,4.59
2023-04-14T02:08:42.332Z,4.50
2023-04-14T02:11:14.734Z,4.48
2023-04-14T02:13:43.887Z,4.44
2023-04-14T02:16:11.896Z,4.40
2023-04-14T02:18:41.645Z,4.33
2023-04-14T02:21:12.019Z,4.27
2023-04-14T02:23:38.880Z,4.26
2023-04-14T02:26:15.035Z,4.19
2023-04-14T02:28:51.162Z,4.14
2023-04-14T02:31:23.925Z,4.09
2023-04-14T02:33:57.999Z,4.05
2023-04-14T02:36:45.072Z,4.07
2023-04-14T02:39:32.200Z,4.10
2023-04-14T02:42:12.563Z,4.05
2023-04-14T02:44:51.571Z,4.05
2023-04-14T02:47:29.137Z,4.00
2023-04-14T02:50:01.685Z,4.01
2023-04-14T02:52:33.731Z,3.98
2023-04-14T02:55:04.132Z,3.99
2023-04-14T02:57:33.236Z,4.02
2023-04-14T03:00:01.980Z,4.00
2023-04-14T03:02:32.244Z,3.97
2023-04-14T03:05:06.840Z,3.96
2023-04-14T03:08:04.225Z,4.01
2023-04-14T03:10:33.429Z,3.93
2023-04-14T03:13:04.622Z,3.88
2023-04-14T03:15:33.580Z,3.85
2023-04-14T03:18:02.247Z,3.88
2023-04-14T03:20:31.003Z,3.84
2023-04-14T03:23:05.446Z,3.85
2023-04-14T03:25:40.708Z,3.85
2023-04-14T03:28:19.262Z,3.81
2023-04-14T03:30:54.277Z,3.77
2023-04-14T03:33:27.473Z,3.74
2023-04-14T03:35:58.823Z,3.70
2023-04-14T03:38:29.400Z,3.62
2023-04-14T03:41:00.064Z,3.56
2023-04-14T03:43:31.649Z,3.52
2023-04-14T03:46:06.859Z,3.47
2023-04-14T03:48:42.466Z,3.44
2023-04-14T03:51:15.850Z,3.42
2023-04-14T03:53:46.419Z,3.41
2023-04-14T03:56:17.769Z,3.39
2023-04-14T03:58:47.309Z,3.38
2023-04-14T04:01:19.099Z,3.38
2023-04-14T04:03:48.534Z,3.38
2023-04-14T04:06:16.479Z,3.37
2023-04-14T04:08:47.281Z,3.44
2023-04-14T04:11:18.911Z,3.44
2023-04-14T04:13:49.565Z,3.43
2023-04-14T04:16:20.421Z,3.39
2023-04-14T04:18:49.011Z,3.41
2023-04-14T04:21:21.778Z,3.36
2023-04-14T04:23:54.357Z,3.32
2023-04-14T04:26:25.248Z,3.27
2023-04-14T04:28:55.164Z,3.32
2023-04-14T04:31:24.153Z,3.29
2023-04-14T04:33:51.631Z,3.26
2023-04-14T04:36:19.965Z,3.25
2023-04-14T04:38:49.428Z,3.21
2023-04-14T04:41:28.791Z,3.19
2023-04-14T04:43:59.337Z,3.15
2023-04-14T04:46:55.921Z,3.16
2023-04-14T04:49:25.855Z,3.17
2023-04-14T04:51:54.506Z,3.16
2023-04-14T04:54:21.481Z,3.15
2023-04-14T04:56:48.421Z,3.17
2023-04-14T04:59:15.476Z,3.23
2023-04-14T05:01:42.293Z,3.28
2023-04-14T05:04:09.213Z,3.35
2023-04-14T05:06:39.347Z,3.56
2023-04-14T05:09:06.813Z,3.70
2023-04-14T05:11:35.550Z,3.69
2023-04-14T05:14:03.501Z,3.65
2023-04-14T05:16:30.607Z,3.66
2023-04-14T05:18:57.975Z,3.76
2023-04-14T05:21:24.880Z,3.93
2023-04-14T05:23:51.746Z,4.10
2023-04-14T05:28:48.398Z,4.19
2023-04-14T05:31:15.552Z,4.34
2023-04-14T05:33:42.411Z,4.69
2023-04-14T05:36:09.291Z,4.82
2023-04-14T05:38:42.306Z,4.87
2023-04-14T05:41:09.573Z,4.92
2023-04-14T05:43:37.321Z,4.87
2023-04-14T05:46:04.545Z,4.82
2023-04-14T05:48:33.230Z,4.89
2023-04-14T05:51:00.362Z,4.94
2023-04-14T05:53:27.824Z,4.97
2023-04-14T05:55:54.764Z,4.97
2023-04-14T05:58:21.712Z,4.97
2023-04-14T06:00:48.581Z,5.06
2023-04-14T06:03:16.752Z,5.13
2023-04-14T06:05:43.924Z,5.24
2023-04-14T06:08:10.922Z,5.33
2023-04-14T06:10:37.834Z,5.37
2023-04-14T06:13:04.745Z,5.45
2023-04-14T06:15:31.904Z,5.66
2023-04-14T06:17:58.817Z,5.78
2023-04-14T06:20:25.812Z,6.07
2023-04-14T06:22:52.841Z,6.25
2023-04-14T06:25:19.847Z,6.51
2023-04-14T06:27:46.766Z,6.75
2023-04-14T06:30:17.090Z,6.98
2023-04-14T06:32:44.147Z,7.19
2023-04-14T06:35:19.123Z,7.24
2023-04-14T06:37:52.850Z,7.37
2023-04-14T06:40:19.681Z,7.42
2023-04-14T06:42:46.533Z,7.59
2023-04-14T06:45:13.553Z,7.87
2023-04-14T06:47:40.816Z,8.02
2023-04-14T06:50:08.058Z,8.23
2023-04-14T06:52:34.947Z,8.36
2023-04-14T06:55:02.620Z,8.39
2023-04-14T06:57:29.395Z,8.50
2023-04-14T06:59:56.644Z,8.39
2023-04-14T07:02:23.567Z,8.44
2023-04-14T07:04:50.549Z,8.51
2023-04-14T07:07:18.069Z,8.72
2023-04-14T07:09:47.936Z,8.91
2023-04-14T07:12:16.620Z,9.02
2023-04-14T07:14:50.989Z,9.16
2023-04-14T07:17:19.359Z,9.43
2023-04-14T07:19:46.690Z,9.52
2023-04-14T07:22:13.742Z,9.84
2023-04-14T07:24:41.167Z,10.26
2023-04-14T07:27:15.426Z,10.79
2023-04-14T07:29:42.801Z,11.29
2023-04-14T07:32:09.816Z,11.67
2023-04-14T07:34:37.166Z,11.90
2023-04-14T07:37:04.249Z,12.15
2023-04-14T07:39:31.244Z,12.45
2023-04-14T07:42:01.654Z,12.59
2023-04-14T07:44:28.561Z,12.78
2023-04-14T07:46:55.417Z,13.06
2023-04-14T07:49:22.253Z,13.27
2023-04-14T07:51:49.367Z,13.52
2023-04-14T07:54:16.844Z,13.96
2023-04-14T07:56:43.679Z,14.35
2023-04-14T07:59:10.517Z,14.74
2023-04-14T08:01:37.774Z,15.06
2023-04-14T08:04:06.607Z,15.23
2023-04-14T08:06:34.038Z,15.12
2023-04-14T08:09:01.093Z,14.76
2023-04-14T08:11:27.998Z,14.23
2023-04-14T08:13:54.809Z,13.69
2023-04-14T08:16:22.676Z,13.25
2023-04-14T08:18:49.804Z,13.06
2023-04-14T08:21:16.759Z,12.96
2023-04-14T08:23:43.790Z,12.86
2023-04-14T08:26:11.658Z,12.73
2023-04-14T08:28:38.496Z,12.62
2023-04-14T08:31:05.536Z,12.42
2023-04-14T08:33:33.813Z,12.37
2023-04-14T08:36:00.902Z,12.32
2023-04-14T08:38:29.430Z,12.29
2023-04-14T08:40:57.350Z,12.17
2023-04-14T08:43:24.274Z,12.18
2023-04-14T08:45:53.432Z,12.33
2023-04-14T08:48:22.977Z,12.51
2023-04-14T08:51:24.800Z,12.50
2023-04-14T08:53:55.235Z,12.48
2023-04-14T08:56:27.290Z,12.57
2023-04-14T08:58:54.570Z,12.67
2023-04-14T09:01:21.576Z,12.67
2023-04-14T09:03:50.440Z,12.72
2023-04-14T09:06:18.811Z,12.92
2023-04-14T09:08:45.727Z,13.21
2023-04-14T09:11:15.774Z,13.64
2023-04-14T09:13:44.800Z,14.10
2023-04-14T09:16:13.365Z,14.41
2023-04-14T09:18:41.182Z,14.63
2023-04-14T09:21:37.163Z,14.97
2023-04-14T09:23:55.171Z,15.35
2023-04-14T09:26:22.462Z,15.59
2023-04-14T09:28:49.287Z,15.89
2023-04-14T09:31:16.727Z,16.05
2023-04-14T09:33:48.639Z,16.00
2023-04-14T09:36:23.678Z,15.84
2023-04-14T09:38:51.899Z,15.62
2023-04-14T09:41:23.694Z,15.36
2023-04-14T09:43:50.907Z,15.38
2023-04-14T09:46:17.948Z,15.35
2023-04-14T09:48:55.981Z,15.42
2023-04-14T09:51:28.178Z,15.55
2023-04-14T09:53:56.013Z,15.75
2023-04-14T09:56:27.887Z,15.69
2023-04-14T09:59:00.231Z,15.83
2023-04-14T10:01:34.370Z,15.78
2023-04-14T10:04:03.008Z,15.80
2023-04-14T10:06:32.131Z,15.85
2023-04-14T10:08:59.878Z,16.01
2023-04-14T10:11:35.384Z,16.02
2023-04-14T10:14:05.319Z,15.61
2023-04-14T10:16:33.385Z,15.20
2023-04-14T10:19:00.844Z,15.20
2023-04-14T10:21:28.057Z,15.39
2023-04-14T10:23:58.350Z,15.51
2023-04-14T10:26:27.026Z,15.17
2023-04-14T10:28:56.338Z,15.27
2023-04-14T10:31:40.354Z,15.74
2023-04-14T10:34:15.725Z,16.10
2023-04-14T10:36:43.929Z,15.91
2023-04-14T10:39:12.480Z,15.81
2023-04-14T10:41:47.864Z,15.84
2023-04-14T10:44:35.192Z,16.00
2023-04-14T10:47:07.556Z,16.15
2023-04-14T10:49:39.707Z,16.05
2023-04-14T10:52:26.400Z,15.90
2023-04-14T10:54:55.252Z,15.93
2023-04-14T10:57:23.954Z,15.91
2023-04-14T10:59:57.119Z,15.83
2023-04-14T11:02:29.939Z,15.83
2023-04-14T11:05:08.813Z,15.64
2023-04-14T11:08:02.989Z,15.77
2023-04-14T11:10:34.315Z,16.14
2023-04-14T11:13:07.716Z,16.06
2023-04-14T11:15:48.021Z,16.09
2023-04-14T11:18:29.227Z,16.35
2023-04-14T11:21:17.876Z,16.26
2023-04-14T11:23:44.953Z,16.59
2023-04-14T11:26:15.958Z,17.04
2023-04-14T11:28:45.084Z,17.36
2023-04-14T11:31:16.907Z,17.39
2023-04-14T11:33:45.515Z,17.37
2023-04-14T11:36:13.442Z,17.20
2023-04-14T11:38:41.012Z,17.35
2023-04-14T11:41:09.394Z,17.44
2023-04-14T11:43:38.303Z,17.60
2023-04-14T11:46:08.292Z,17.77
2023-04-14T11:48:35.639Z,18.01
2023-04-14T11:51:03.724Z,18.31
2023-04-14T11:53:31.146Z,18.40
2023-04-14T11:55:58.170Z,18.25
2023-04-14T11:58:27.545Z,17.86
2023-04-14T12:00:57.655Z,17.89
2023-04-14T12:03:35.655Z,18.15
2023-04-14T12:06:03.424Z,18.11
2023-04-14T12:08:32.706Z,17.91
2023-04-14T12:11:15.716Z,17.53
2023-04-14T12:13:45.292Z,17.17
2023-04-14T12:16:13.588Z,17.11
2023-04-14T12:18:41.762Z,17.53
2023-04-14T12:21:11.696Z,17.94
2023-04-14T12:23:41.421Z,17.87
2023-04-14T12:26:12.491Z,17.49
2023-04-14T12:28:41.555Z,17.74
2023-04-14T12:31:10.071Z,17.90
2023-04-14T12:33:37.034Z,17.34
2023-04-14T12:36:12.279Z,17.18
2023-04-14T12:38:39.294Z,17.54
2023-04-14T12:41:06.176Z,17.90
2023-04-14T12:43:38.273Z,18.14
2023-04-14T12:46:06.040Z,18.17
2023-04-14T12:48:48.333Z,18.31
2023-04-14T12:51:20.538Z,18.29
2023-04-14T12:53:50.425Z,18.26
2023-04-14T12:56:19.871Z,18.34
2023-04-14T12:58:48.460Z,18.81
2023-04-14T13:01:20.115Z,19.05
2023-04-14T13:03:55.681Z,19.31
2023-04-14T13:06:24.996Z,19.56
2023-04-14T13:08:54.296Z,19.60
2023-04-14T13:11:23.676Z,19.54
2023-04-14T13:13:54.436Z,19.56
2023-04-14T13:16:22.149Z,19.72
2023-04-14T13:18:49.767Z,19.90
2023-04-14T13:21:17.037Z,19.39
2023-04-14T13:23:44.243Z,18.69
2023-04-14T13:26:12.814Z,18.18
2023-04-14T13:28:39.736Z,17.97
2023-04-14T13:31:07.084Z,17.44
2023-04-14T13:33:34.145Z,17.08
2023-04-14T13:36:03.068Z,16.95
2023-04-14T13:38:30.157Z,17.24
2023-04-14T13:40:56.981Z,17.37
2023-04-14T13:43:24.721Z,17.46
2023-04-14T13:45:52.030Z,17.39
2023-04-14T13:48:19.244Z,17.58
2023-04-14T13:50:46.042Z,17.75
2023-04-14T13:53:12.824Z,18.22
2023-04-14T13:55:39.610Z,18.80
2023-04-14T13:58:06.648Z,19.33
2023-04-14T14:00:33.516Z,19.74
2023-04-14T14:03:00.850Z,20.08
2023-04-14T14:05:28.349Z,20.31
2023-04-14T14:07:57.081Z,19.90
2023-04-14T14:10:23.954Z,19.43
2023-04-14T14:12:50.815Z,18.77
2023-04-14T14:15:17.791Z,18.18
2023-04-14T14:17:44.706Z,17.70
2023-04-14T14:20:12.065Z,17.45
2023-04-14T14:22:39.008Z,17.21
2023-04-14T14:25:18.287Z,16.97
2023-04-14T14:27:47.613Z,16.79
2023-04-14T14:30:14.571Z,16.73
2023-04-14T14:32:41.561Z,16.77
2023-04-14T14:35:09.570Z,16.86
2023-04-14T14:37:36.732Z,17.39
2023-04-14T14:40:04.174Z,18.13
2023-04-14T14:42:31.232Z,18.46
2023-04-14T14:44:58.981Z,19.01
2023-04-14T14:47:28.710Z,19.24
2023-04-14T14:50:01.699Z,19.25
2023-04-14T14:52:32.213Z,18.89
2023-04-14T14:54:59.352Z,18.53
2023-04-14T14:57:27.318Z,18.32
2023-04-14T14:59:54.403Z,18.26
2023-04-14T15:02:22.479Z,18.47
2023-04-14T15:04:49.742Z,18.87
2023-04-14T15:07:17.105Z,19.18
2023-04-14T15:09:47.049Z,19.14
2023-04-14T15:12:13.999Z,19.11
2023-04-14T15:14:40.909Z,18.91
2023-04-14T15:17:08.261Z,18.54
2023-04-14T15:19:35.185Z,17.99
2023-04-14T15:22:02.046Z,17.54
2023-04-14T15:24:28.883Z,17.21
2023-04-14T15:26:56.144Z,16.85
2023-04-14T15:29:25.834Z,16.66
2023-04-14T15:31:52.754Z,16.46
2023-04-14T15:34:19.630Z,16.17
2023-04-14T15:36:46.448Z,15.94
2023-04-14T15:39:13.304Z,15.69
2023-04-14T15:41:41.317Z,15.51
2023-04-14T15:44:08.120Z,15.45
2023-04-14T15:46:34.954Z,15.47
2023-04-14T15:49:01.721Z,15.44
2023-04-14T15:51:28.583Z,15.28
2023-04-14T15:53:55.360Z,15.23
2023-04-14T15:56:23.582Z,15.15
2023-04-14T15:58:50.970Z,15.08
2023-04-14T16:01:18.036Z,15.06
2023-04-14T16:03:45.192Z,15.05
2023-04-14T16:06:12.294Z,15.07
2023-04-14T16:08:39.255Z,15.13
2023-04-14T16:11:06.111Z,15.15
2023-04-14T16:13:33.191Z,15.22
2023-04-14T16:16:00.134Z,15.22
2023-04-14T16:18:27.093Z,15.17
2023-04-14T16:20:53.925Z,15.12
2023-04-14T16:23:20.768Z,15.05
2023-04-14T16:25:49.695Z,14.95
2023-04-14T16:28:16.717Z,14.90
2023-04-14T16:30:43.734Z,14.88
2023-04-14T16:33:10.845Z,14.92
2023-04-14T16:35:37.814Z,14.94
2023-04-14T16:38:08.520Z,15.01
2023-04-14T16:40:37.288Z,15.06
2023-04-14T16:43:04.770Z,15.08
2023-04-14T16:45:32.329Z,15.09
2023-04-14T16:47:59.641Z,15.08
2023-04-14T16:50:27.433Z,14.99
2023-04-14T16:52:54.560Z,14.93
2023-04-14T16:55:21.491Z,14.92
2023-04-14T16:57:48.344Z,15.08
2023-04-14T17:00:16.758Z,15.13
2023-04-14T17:02:43.831Z,15.17
2023-04-14T17:05:13.235Z,15.31
2023-04-14T17:07:40.774Z,15.39
2023-04-14T17:10:08.405Z,15.42
2023-04-14T17:12:35.244Z,15.46
2023-04-14T17:15:03.633Z,15.53
2023-04-14T17:17:31.971Z,15.61
2023-04-14T17:19:59.567Z,15.67
2023-04-14T17:22:27.717Z,15.51
2023-04-14T17:24:54.981Z,15.30
2023-04-14T17:27:22.347Z,15.14
2023-04-14T17:29:49.472Z,14.97
2023-04-14T17:32:18.505Z,14.76
2023-04-14T17:34:48.762Z,14.62
2023-04-14T17:37:16.380Z,14.52
2023-04-14T17:39:43.999Z,14.41
2023-04-14T17:42:12.128Z,14.32
2023-04-14T17:44:39.012Z,14.27
2023-04-14T17:47:12.962Z,14.19
2023-04-14T17:49:39.783Z,14.10
2023-04-14T17:52:17.840Z,14.04
2023-04-14T17:54:45.923Z,13.99
2023-04-14T17:57:13.484Z,13.93
2023-04-14T17:59:42.492Z,13.89
2023-04-14T18:02:09.810Z,13.86
2023-04-14T18:04:36.683Z,13.83
2023-04-14T18:07:04.614Z,13.79
2023-04-14T18:09:31.490Z,13.78
2023-04-14T18:11:59.064Z,13.76
2023-04-14T18:14:26.585Z,13.75
2023-04-14T18:16:53.660Z,13.68
2023-04-14T18:19:21.944Z,13.63
2023-04-14T18:21:49.035Z,13.58
2023-04-14T18:26:45.997Z,13.51
2023-04-14T18:29:12.751Z,13.46
2023-04-14T18:31:39.489Z,13.43
2023-04-14T18:34:06.525Z,13.41
2023-04-14T18:36:33.732Z,13.40
2023-04-14T18:39:01.292Z,13.39
2023-04-14T18:41:28.662Z,13.36
2023-04-14T18:43:55.502Z,13.33
2023-04-14T18:46:23.040Z,13.29
2023-04-14T18:48:49.939Z,13.26
2023-04-14T18:51:16.847Z,13.23
2023-04-14T18:53:45.574Z,13.22
2023-04-14T18:56:13.463Z,13.19
2023-04-14T18:58:40.549Z,13.16
2023-04-14T19:01:08.686Z,13.13
2023-04-14T19:03:36.611Z,13.10
2023-04-14T19:06:03.780Z,13.10
2023-04-14T19:08:30.713Z,13.07
2023-04-14T19:10:59.288Z,13.03
2023-04-14T19:13:26.575Z,12.95
2023-04-14T19:15:53.992Z,12.86
2023-04-14T19:18:20.860Z,12.78
2023-04-14T19:20:49.566Z,12.69
2023-04-14T19:23:16.422Z,12.64
2023-04-14T19:25:43.296Z,12.58
2023-04-14T19:28:16.584Z,12.54
2023-04-14T19:30:45.830Z,12.52
2023-04-14T19:33:13.046Z,12.51
2023-04-14T19:35:40.114Z,12.49
2023-04-14T19:38:07.795Z,12.46
2023-04-14T19:40:34.679Z,12.42
2023-04-14T19:43:01.888Z,12.41
2023-04-14T19:45:28.925Z,12.39
2023-04-14T19:47:55.968Z,12.37
2023-04-14T19:50:22.876Z,12.37
2023-04-14T19:52:51.985Z,12.37
2023-04-14T19:55:19.093Z,12.36
2023-04-14T19:57:47.072Z,12.35
2023-04-14T20:00:15.694Z,12.33
2023-04-14T20:02:42.969Z,12.31
2023-04-14T20:05:10.026Z,12.27
2023-04-14T20:07:36.951Z,12.25
2023-04-14T20:10:04.118Z,12.22
2023-04-14T20:12:31.119Z,12.19
2023-04-14T20:14:58.172Z,12.16
2023-04-14T20:17:27.293Z,12.12
2023-04-14T20:19:54.793Z,12.10
2023-04-14T20:22:21.738Z,12.03
2023-04-14T20:24:48.571Z,11.97
2023-04-14T20:27:15.541Z,11.91
2023-04-14T20:29:42.367Z,11.87
2023-04-14T20:32:09.520Z,11.82
2023-04-14T20:34:36.336Z,11.79
2023-04-14T20:37:03.140Z,11.73
2023-04-14T20:39:30.642Z,11.71
2023-04-14T20:41:57.546Z,11.66
2023-04-14T20:44:24.478Z,11.62
2023-04-14T20:46:52.156Z,11.56
2023-04-14T20:49:18.979Z,11.51
2023-04-14T20:51:46.852Z,11.46
2023-04-14T20:54:14.055Z,11.39
2023-04-14T20:56:41.019Z,11.31
2023-04-14T20:59:07.954Z,11.23
2023-04-14T21:01:35.011Z,11.16
2023-04-14T21:04:02.000Z,11.12
2023-04-14T21:06:31.716Z,11.06
2023-04-14T21:09:00.200Z,11.00
2023-04-14T21:11:27.374Z,10.94
2023-04-14T21:15:29.090Z,10.87
2023-04-14T21:16:41.689Z,10.79
2023-04-14T21:19:09.412Z,10.74
2023-04-14T21:21:36.928Z,10.66
2023-04-14T21:24:04.138Z,10.59
2023-04-14T21:26:31.765Z,10.53
2023-04-14T21:28:58.722Z,10.48
2023-04-14T21:31:25.894Z,10.40
2023-04-14T21:33:52.795Z,10.36
2023-04-14T21:36:19.874Z,10.31
2023-04-14T21:38:47.220Z,10.25
2023-04-14T21:41:14.387Z,10.20
2023-04-14T21:43:41.742Z,10.15
2023-04-14T21:46:08.778Z,10.11
2023-04-14T21:48:35.797Z,10.06
2023-04-14T21:51:03.406Z,10.00
2023-04-14T21:53:31.394Z,9.96
2023-04-14T21:56:09.767Z,9.90
2023-04-14T21:58:38.217Z,9.86
2023-04-14T22:01:05.465Z,9.81
2023-04-14T22:03:33.402Z,9.78
2023-04-14T22:06:00.376Z,9.74
2023-04-14T22:08:27.232Z,9.68
2023-04-14T22:10:54.961Z,9.66
2023-04-14T22:13:21.802Z,9.59
2023-04-14T22:15:49.824Z,9.56
2023-04-14T22:18:17.339Z,9.52
2023-04-14T22:20:45.146Z,9.50
2023-04-14T22:23:13.218Z,9.46
2023-04-14T22:25:40.302Z,9.43
2023-04-14T22:28:07.450Z,9.37
2023-04-14T22:30:35.250Z,9.35
2023-04-14T22:33:02.490Z,9.33
2023-04-14T22:35:30.232Z,9.29
2023-04-14T22:37:57.392Z,9.25
2023-04-14T22:40:24.455Z,9.22
2023-04-14T22:42:51.817Z,9.20
2023-04-14T22:45:18.694Z,9.17
2023-04-14T22:47:45.860Z,9.14
2023-04-14T22:50:12.926Z,9.11
2023-04-14T22:52:39.732Z,9.07
2023-04-14T22:55:07.653Z,9.05
2023-04-14T22:57:34.515Z,9.01
2023-04-14T23:00:01.562Z,8.98
2023-04-14T23:02:28.614Z,8.92
2023-04-14T23:04:55.809Z,8.89
2023-04-14T23:07:22.602Z,8.81
2023-04-14T23:09:49.609Z,8.77
2023-04-14T23:12:17.183Z,8.72
2023-04-14T23:14:43.990Z,8.69
2023-04-14T23:17:11.790Z,8.63
2023-04-14T23:19:39.281Z,8.58
2023-04-14T23:22:06.292Z,8.55
2023-04-14T23:24:33.122Z,8.51
2023-04-14T23:27:00.367Z,8.47
2023-04-14T23:29:27.225Z,8.42
2023-04-14T23:31:54.159Z,8.38
2023-04-14T23:34:20.997Z,8.32
2023-04-14T23:36:48.165Z,8.29
2023-04-14T23:39:15.085Z,8.25
2023-04-14T23:41:41.880Z,8.22
2023-04-14T23:44:08.741Z,8.18
2023-04-14T23:46:35.644Z,8.15
2023-04-14T23:49:03.095Z,8.12
2023-04-14T23:51:49.371Z,8.09
2023-04-14T23:54:16.224Z,8.07
2023-04-14T23:56:42.999Z,8.05
2023-04-14T23:59:09.875Z,8.03
